sensor_id;sensor_type;location;lat;lon;timestamp;P1;durP1;ratioP1;P2;durP2;ratioP2
38479;SDS011;62333;51.980;5.934;2023-01-04T00:01:04;4.30;;;1.15;;
38479;SDS011;62333;51.980;5.934;2023-01-04T00:03:31;4.38;;;0.77;;
38479;SDS011;62333;51.980;5.934;2023-01-04T00:05:58;4.97;;;0.70;;
38479;SDS011;62333;51.980;5.934;2023-01-04T00:08:25;8.27;;;0.98;;
38479;SDS011;62333;51.980;5.934;2023-01-04T00:10:50;6.75;;;1.40;;
38479;SDS011;62333;51.980;5.934;2023-01-04T00:13:16;9.70;;;1.30;;
38479;SDS011;62333;51.980;5.934;2023-01-04T00:15:42;4.03;;;1.00;;
38479;SDS011;62333;51.980;5.934;2023-01-04T00:18:07;3.55;;;0.60;;
38479;SDS011;62333;51.980;5.934;2023-01-04T00:20:33;7.18;;;1.58;;
38479;SDS011;62333;51.980;5.934;2023-01-04T00:22:59;7.68;;;2.38;;
38479;SDS011;62333;51.980;5.934;2023-01-04T00:25:24;4.88;;;0.65;;
38479;SDS011;62333;51.980;5.934;2023-01-04T00:27:50;6.25;;;1.33;;
38479;SDS011;62333;51.980;5.934;2023-01-04T00:30:17;7.65;;;2.25;;
38479;SDS011;62333;51.980;5.934;2023-01-04T00:32:44;7.55;;;0.95;;
38479;SDS011;62333;51.980;5.934;2023-01-04T00:35:10;4.70;;;1.38;;
38479;SDS011;62333;51.980;5.934;2023-01-04T00:37:36;7.20;;;1.45;;
38479;SDS011;62333;51.980;5.934;2023-01-04T00:40:02;8.95;;;1.35;;
38479;SDS011;62333;51.980;5.934;2023-01-04T00:42:28;6.03;;;1.17;;
38479;SDS011;62333;51.980;5.934;2023-01-04T00:44:53;5.60;;;1.58;;
38479;SDS011;62333;51.980;5.934;2023-01-04T00:47:19;4.38;;;1.00;;
38479;SDS011;62333;51.980;5.934;2023-01-04T00:49:45;4.30;;;0.70;;
38479;SDS011;62333;51.980;5.934;2023-01-04T00:52:10;7.22;;;0.98;;
38479;SDS011;62333;51.980;5.934;2023-01-04T00:54:36;3.67;;;1.13;;
38479;SDS011;62333;51.980;5.934;2023-01-04T00:57:01;13.15;;;1.67;;
38479;SDS011;62333;51.980;5.934;2023-01-04T00:59:29;8.10;;;0.70;;
38479;SDS011;62333;51.980;5.934;2023-01-04T01:01:55;7.03;;;1.08;;
38479;SDS011;62333;51.980;5.934;2023-01-04T01:04:21;12.65;;;2.08;;
38479;SDS011;62333;51.980;5.934;2023-01-04T01:06:48;6.45;;;1.02;;
38479;SDS011;62333;51.980;5.934;2023-01-04T01:09:15;4.88;;;1.25;;
38479;SDS011;62333;51.980;5.934;2023-01-04T01:11:42;7.60;;;1.17;;
38479;SDS011;62333;51.980;5.934;2023-01-04T01:14:08;8.55;;;1.55;;
38479;SDS011;62333;51.980;5.934;2023-01-04T01:19:05;8.32;;;1.08;;
38479;SDS011;62333;51.980;5.934;2023-01-04T01:21:30;6.32;;;1.30;;
38479;SDS011;62333;51.980;5.934;2023-01-04T01:23:57;3.30;;;1.00;;
38479;SDS011;62333;51.980;5.934;2023-01-04T01:26:23;5.00;;;0.60;;
38479;SDS011;62333;51.980;5.934;2023-01-04T01:28:49;6.88;;;1.15;;
38479;SDS011;62333;51.980;5.934;2023-01-04T01:31:17;6.72;;;0.88;;
38479;SDS011;62333;51.980;5.934;2023-01-04T01:33:45;3.92;;;0.95;;
38479;SDS011;62333;51.980;5.934;2023-01-04T01:36:13;6.43;;;0.95;;
38479;SDS011;62333;51.980;5.934;2023-01-04T01:38:40;3.63;;;0.55;;
38479;SDS011;62333;51.980;5.934;2023-01-04T01:41:07;5.63;;;1.05;;
38479;SDS011;62333;51.980;5.934;2023-01-04T01:46:34;1.65;;;0.65;;
38479;SDS011;62333;51.980;5.934;2023-01-04T01:49:08;3.97;;;1.15;;
38479;SDS011;62333;51.980;5.934;2023-01-04T01:51:35;3.00;;;0.63;;
38479;SDS011;62333;51.980;5.934;2023-01-04T01:54:07;4.25;;;0.50;;
38479;SDS011;62333;51.980;5.934;2023-01-04T01:56:37;3.05;;;0.70;;
38479;SDS011;62333;51.980;5.934;2023-01-04T01:59:06;5.30;;;2.10;;
38479;SDS011;62333;51.980;5.934;2023-01-04T02:01:35;7.10;;;1.92;;
38479;SDS011;62333;51.980;5.934;2023-01-04T02:04:01;3.15;;;0.70;;
38479;SDS011;62333;51.980;5.934;2023-01-04T02:06:28;1.70;;;0.50;;
38479;SDS011;62333;51.980;5.934;2023-01-04T02:08:57;2.85;;;0.85;;
38479;SDS011;62333;51.980;5.934;2023-01-04T02:11:25;3.83;;;0.70;;
38479;SDS011;62333;51.980;5.934;2023-01-04T02:13:51;4.65;;;1.00;;
38479;SDS011;62333;51.980;5.934;2023-01-04T02:32:33;1.48;;;0.40;;
38479;SDS011;62333;51.980;5.934;2023-01-04T02:35:11;1.20;;;0.40;;
38479;SDS011;62333;51.980;5.934;2023-01-04T02:44:07;3.17;;;0.98;;
38479;SDS011;62333;51.980;5.934;2023-01-04T02:46:39;1.17;;;0.43;;
38479;SDS011;62333;51.980;5.934;2023-01-04T02:49:13;4.30;;;0.75;;
38479;SDS011;62333;51.980;5.934;2023-01-04T02:51:57;1.58;;;0.35;;
38479;SDS011;62333;51.980;5.934;2023-01-04T02:54:27;1.17;;;0.30;;
38479;SDS011;62333;51.980;5.934;2023-01-04T03:05:55;1.48;;;0.43;;
38479;SDS011;62333;51.980;5.934;2023-01-04T03:11:20;1.80;;;0.30;;
38479;SDS011;62333;51.980;5.934;2023-01-04T03:16:36;2.63;;;0.30;;
38479;SDS011;62333;51.980;5.934;2023-01-04T03:19:03;2.20;;;0.57;;
38479;SDS011;62333;51.980;5.934;2023-01-04T03:21:33;1.17;;;0.30;;
38479;SDS011;62333;51.980;5.934;2023-01-04T03:24:01;2.60;;;0.35;;
38479;SDS011;62333;51.980;5.934;2023-01-04T03:26:50;2.63;;;0.82;;
38479;SDS011;62333;51.980;5.934;2023-01-04T03:29:54;1.55;;;0.40;;
38479;SDS011;62333;51.980;5.934;2023-01-04T03:32:45;0.63;;;0.20;;
38479;SDS011;62333;51.980;5.934;2023-01-04T03:35:48;0.90;;;0.30;;
38479;SDS011;62333;51.980;5.934;2023-01-04T03:38:26;1.70;;;0.45;;
38479;SDS011;62333;51.980;5.934;2023-01-04T03:41:17;0.38;;;0.20;;
38479;SDS011;62333;51.980;5.934;2023-01-04T03:46:52;2.75;;;0.47;;
38479;SDS011;62333;51.980;5.934;2023-01-04T03:49:46;0.82;;;0.30;;
38479;SDS011;62333;51.980;5.934;2023-01-04T03:52:21;1.33;;;0.30;;
38479;SDS011;62333;51.980;5.934;2023-01-04T03:54:50;1.20;;;0.40;;
38479;SDS011;62333;51.980;5.934;2023-01-04T03:57:17;1.23;;;0.40;;
38479;SDS011;62333;51.980;5.934;2023-01-04T03:59:45;1.70;;;0.40;;
38479;SDS011;62333;51.980;5.934;2023-01-04T04:02:14;1.98;;;0.63;;
38479;SDS011;62333;51.980;5.934;2023-01-04T04:04:43;0.73;;;0.30;;
38479;SDS011;62333;51.980;5.934;2023-01-04T04:07:27;1.33;;;0.40;;
38479;SDS011;62333;51.980;5.934;2023-01-04T04:10:11;2.45;;;0.50;;
38479;SDS011;62333;51.980;5.934;2023-01-04T04:12:37;3.70;;;0.52;;
38479;SDS011;62333;51.980;5.934;2023-01-04T04:15:03;1.27;;;0.40;;
38479;SDS011;62333;51.980;5.934;2023-01-04T04:17:29;1.38;;;0.60;;
38479;SDS011;62333;51.980;5.934;2023-01-04T04:19:55;0.82;;;0.40;;
38479;SDS011;62333;51.980;5.934;2023-01-04T04:22:20;3.42;;;1.10;;
38479;SDS011;62333;51.980;5.934;2023-01-04T04:24:46;2.22;;;0.50;;
38479;SDS011;62333;51.980;5.934;2023-01-04T04:27:12;3.08;;;0.55;;
38479;SDS011;62333;51.980;5.934;2023-01-04T04:29:37;1.15;;;0.60;;
38479;SDS011;62333;51.980;5.934;2023-01-04T04:32:03;2.13;;;1.13;;
38479;SDS011;62333;51.980;5.934;2023-01-04T04:34:29;2.55;;;1.05;;
38479;SDS011;62333;51.980;5.934;2023-01-04T04:36:54;4.60;;;0.93;;
38479;SDS011;62333;51.980;5.934;2023-01-04T04:39:20;2.63;;;0.88;;
38479;SDS011;62333;51.980;5.934;2023-01-04T04:41:46;2.28;;;0.70;;
38479;SDS011;62333;51.980;5.934;2023-01-04T04:44:12;3.72;;;0.60;;
38479;SDS011;62333;51.980;5.934;2023-01-04T04:46:40;2.28;;;1.05;;
38479;SDS011;62333;51.980;5.934;2023-01-04T04:49:06;3.15;;;0.60;;
38479;SDS011;62333;51.980;5.934;2023-01-04T04:51:33;2.28;;;1.30;;
38479;SDS011;62333;51.980;5.934;2023-01-04T04:53:59;5.18;;;0.70;;
38479;SDS011;62333;51.980;5.934;2023-01-04T04:56:25;2.38;;;0.60;;
38479;SDS011;62333;51.980;5.934;2023-01-04T04:58:51;2.22;;;0.70;;
38479;SDS011;62333;51.980;5.934;2023-01-04T05:01:18;3.60;;;0.98;;
38479;SDS011;62333;51.980;5.934;2023-01-04T05:03:43;2.70;;;0.60;;
38479;SDS011;62333;51.980;5.934;2023-01-04T05:06:09;0.90;;;0.40;;
38479;SDS011;62333;51.980;5.934;2023-01-04T05:08:35;1.83;;;0.50;;
38479;SDS011;62333;51.980;5.934;2023-01-04T05:11:04;1.80;;;0.50;;
38479;SDS011;62333;51.980;5.934;2023-01-04T05:13:31;1.52;;;0.65;;
38479;SDS011;62333;51.980;5.934;2023-01-04T05:15:57;2.55;;;0.95;;
38479;SDS011;62333;51.980;5.934;2023-01-04T05:18:22;2.10;;;0.60;;
38479;SDS011;62333;51.980;5.934;2023-01-04T05:20:48;4.20;;;0.88;;
38479;SDS011;62333;51.980;5.934;2023-01-04T05:23:15;1.88;;;0.77;;
38479;SDS011;62333;51.980;5.934;2023-01-04T05:25:42;1.98;;;0.77;;
38479;SDS011;62333;51.980;5.934;2023-01-04T05:28:08;2.03;;;0.95;;
38479;SDS011;62333;51.980;5.934;2023-01-04T05:30:34;2.90;;;1.23;;
38479;SDS011;62333;51.980;5.934;2023-01-04T05:33:36;1.38;;;0.60;;
38479;SDS011;62333;51.980;5.934;2023-01-04T05:36:02;3.55;;;0.98;;
38479;SDS011;62333;51.980;5.934;2023-01-04T05:38:28;1.60;;;0.82;;
38479;SDS011;62333;51.980;5.934;2023-01-04T05:40:55;4.35;;;1.10;;
38479;SDS011;62333;51.980;5.934;2023-01-04T05:43:21;2.63;;;1.40;;
38479;SDS011;62333;51.980;5.934;2023-01-04T05:45:49;4.15;;;0.98;;
38479;SDS011;62333;51.980;5.934;2023-01-04T05:48:16;3.25;;;0.90;;
38479;SDS011;62333;51.980;5.934;2023-01-04T05:50:43;2.30;;;0.88;;
38479;SDS011;62333;51.980;5.934;2023-01-04T05:53:10;5.68;;;1.30;;
38479;SDS011;62333;51.980;5.934;2023-01-04T05:55:36;5.85;;;1.35;;
38479;SDS011;62333;51.980;5.934;2023-01-04T05:58:02;2.60;;;0.75;;
38479;SDS011;62333;51.980;5.934;2023-01-04T06:00:27;2.10;;;0.70;;
38479;SDS011;62333;51.980;5.934;2023-01-04T06:02:53;2.67;;;0.80;;
38479;SDS011;62333;51.980;5.934;2023-01-04T06:05:21;4.00;;;1.10;;
38479;SDS011;62333;51.980;5.934;2023-01-04T06:07:49;2.42;;;1.15;;
38479;SDS011;62333;51.980;5.934;2023-01-04T06:10:15;3.75;;;1.20;;
38479;SDS011;62333;51.980;5.934;2023-01-04T06:12:41;2.90;;;0.80;;
38479;SDS011;62333;51.980;5.934;2023-01-04T06:15:07;5.13;;;0.70;;
38479;SDS011;62333;51.980;5.934;2023-01-04T06:17:34;2.50;;;1.55;;
38479;SDS011;62333;51.980;5.934;2023-01-04T06:20:00;3.63;;;0.90;;
38479;SDS011;62333;51.980;5.934;2023-01-04T06:22:27;2.05;;;0.55;;
38479;SDS011;62333;51.980;5.934;2023-01-04T06:24:53;3.97;;;0.70;;
38479;SDS011;62333;51.980;5.934;2023-01-04T06:27:19;4.03;;;0.95;;
38479;SDS011;62333;51.980;5.934;2023-01-04T06:29:45;2.63;;;0.93;;
38479;SDS011;62333;51.980;5.934;2023-01-04T06:32:11;4.32;;;1.58;;
38479;SDS011;62333;51.980;5.934;2023-01-04T06:34:36;2.22;;;0.70;;
38479;SDS011;62333;51.980;5.934;2023-01-04T06:37:02;1.95;;;0.80;;
38479;SDS011;62333;51.980;5.934;2023-01-04T06:39:29;1.23;;;0.70;;
38479;SDS011;62333;51.980;5.934;2023-01-04T06:41:55;3.83;;;1.70;;
38479;SDS011;62333;51.980;5.934;2023-01-04T06:44:21;2.08;;;0.90;;
38479;SDS011;62333;51.980;5.934;2023-01-04T06:46:46;2.30;;;0.95;;
38479;SDS011;62333;51.980;5.934;2023-01-04T06:49:12;2.75;;;1.20;;
38479;SDS011;62333;51.980;5.934;2023-01-04T06:51:38;6.35;;;1.50;;
38479;SDS011;62333;51.980;5.934;2023-01-04T06:54:04;5.90;;;1.38;;
38479;SDS011;62333;51.980;5.934;2023-01-04T06:56:30;3.60;;;1.13;;
38479;SDS011;62333;51.980;5.934;2023-01-04T06:58:56;4.22;;;1.50;;
38479;SDS011;62333;51.980;5.934;2023-01-04T07:01:22;3.30;;;0.80;;
38479;SDS011;62333;51.980;5.934;2023-01-04T07:03:48;3.72;;;0.90;;
38479;SDS011;62333;51.980;5.934;2023-01-04T07:06:13;2.55;;;0.85;;
38479;SDS011;62333;51.980;5.934;2023-01-04T07:08:39;4.45;;;0.88;;
38479;SDS011;62333;51.980;5.934;2023-01-04T07:11:05;1.20;;;0.52;;
38479;SDS011;62333;51.980;5.934;2023-01-04T07:13:30;2.03;;;0.75;;
38479;SDS011;62333;51.980;5.934;2023-01-04T07:15:56;3.13;;;0.88;;
38479;SDS011;62333;51.980;5.934;2023-01-04T07:18:22;2.95;;;0.82;;
38479;SDS011;62333;51.980;5.934;2023-01-04T07:20:48;1.58;;;0.70;;
38479;SDS011;62333;51.980;5.934;2023-01-04T07:23:13;2.83;;;1.10;;
38479;SDS011;62333;51.980;5.934;2023-01-04T07:25:39;2.25;;;0.70;;
38479;SDS011;62333;51.980;5.934;2023-01-04T07:28:05;4.10;;;0.80;;
38479;SDS011;62333;51.980;5.934;2023-01-04T07:30:30;4.93;;;0.70;;
38479;SDS011;62333;51.980;5.934;2023-01-04T07:32:56;5.05;;;0.60;;
38479;SDS011;62333;51.980;5.934;2023-01-04T07:35:22;3.38;;;0.98;;
38479;SDS011;62333;51.980;5.934;2023-01-04T07:37:49;3.17;;;0.63;;
38479;SDS011;62333;51.980;5.934;2023-01-04T07:40:15;1.50;;;0.50;;
38479;SDS011;62333;51.980;5.934;2023-01-04T07:42:40;4.53;;;0.85;;
38479;SDS011;62333;51.980;5.934;2023-01-04T07:45:06;2.67;;;1.40;;
38479;SDS011;62333;51.980;5.934;2023-01-04T07:47:32;2.75;;;0.50;;
38479;SDS011;62333;51.980;5.934;2023-01-04T07:49:58;2.38;;;0.50;;
38479;SDS011;62333;51.980;5.934;2023-01-04T07:52:24;2.60;;;0.57;;
38479;SDS011;62333;51.980;5.934;2023-01-04T07:54:50;2.97;;;1.17;;
38479;SDS011;62333;51.980;5.934;2023-01-04T07:57:16;2.83;;;0.90;;
38479;SDS011;62333;51.980;5.934;2023-01-04T07:59:41;2.88;;;0.60;;
38479;SDS011;62333;51.980;5.934;2023-01-04T08:02:10;3.65;;;0.80;;
38479;SDS011;62333;51.980;5.934;2023-01-04T08:04:36;4.05;;;0.70;;
38479;SDS011;62333;51.980;5.934;2023-01-04T08:07:03;3.42;;;1.17;;
38479;SDS011;62333;51.980;5.934;2023-01-04T08:09:28;8.60;;;1.70;;
38479;SDS011;62333;51.980;5.934;2023-01-04T08:11:54;5.53;;;1.88;;
38479;SDS011;62333;51.980;5.934;2023-01-04T08:14:20;4.18;;;0.75;;
38479;SDS011;62333;51.980;5.934;2023-01-04T08:16:47;5.03;;;1.30;;
38479;SDS011;62333;51.980;5.934;2023-01-04T08:19:13;5.72;;;0.63;;
38479;SDS011;62333;51.980;5.934;2023-01-04T08:21:41;7.85;;;1.50;;
38479;SDS011;62333;51.980;5.934;2023-01-04T08:24:14;7.93;;;1.00;;
38479;SDS011;62333;51.980;5.934;2023-01-04T08:26:43;4.65;;;1.10;;
38479;SDS011;62333;51.980;5.934;2023-01-04T08:29:09;3.95;;;1.73;;
38479;SDS011;62333;51.980;5.934;2023-01-04T08:31:36;3.80;;;1.42;;
38479;SDS011;62333;51.980;5.934;2023-01-04T08:34:04;2.17;;;0.73;;
38479;SDS011;62333;51.980;5.934;2023-01-04T08:36:32;2.63;;;0.95;;
38479;SDS011;62333;51.980;5.934;2023-01-04T08:39:03;3.50;;;1.00;;
38479;SDS011;62333;51.980;5.934;2023-01-04T08:41:30;1.83;;;0.60;;
38479;SDS011;62333;51.980;5.934;2023-01-04T08:43:58;3.50;;;1.15;;
38479;SDS011;62333;51.980;5.934;2023-01-04T08:46:23;3.10;;;1.30;;
38479;SDS011;62333;51.980;5.934;2023-01-04T08:48:52;9.43;;;1.50;;
38479;SDS011;62333;51.980;5.934;2023-01-04T08:51:18;1.73;;;0.50;;
38479;SDS011;62333;51.980;5.934;2023-01-04T08:53:43;4.15;;;0.85;;
38479;SDS011;62333;51.980;5.934;2023-01-04T08:56:09;1.67;;;0.50;;
38479;SDS011;62333;51.980;5.934;2023-01-04T08:58:35;6.63;;;1.15;;
38479;SDS011;62333;51.980;5.934;2023-01-04T09:01:06;2.15;;;0.50;;
38479;SDS011;62333;51.980;5.934;2023-01-04T09:03:33;2.50;;;0.80;;
38479;SDS011;62333;51.980;5.934;2023-01-04T09:06:10;3.33;;;1.00;;
38479;SDS011;62333;51.980;5.934;2023-01-04T09:08:38;2.78;;;0.73;;
38479;SDS011;62333;51.980;5.934;2023-01-04T09:11:11;4.75;;;1.00;;
38479;SDS011;62333;51.980;5.934;2023-01-04T09:13:39;4.97;;;1.00;;
38479;SDS011;62333;51.980;5.934;2023-01-04T09:16:06;1.77;;;0.70;;
38479;SDS011;62333;51.980;5.934;2023-01-04T09:18:33;6.30;;;1.10;;
38479;SDS011;62333;51.980;5.934;2023-01-04T09:21:06;4.20;;;0.70;;
38479;SDS011;62333;51.980;5.934;2023-01-04T09:23:34;2.10;;;0.60;;
38479;SDS011;62333;51.980;5.934;2023-01-04T09:26:07;4.80;;;1.05;;
38479;SDS011;62333;51.980;5.934;2023-01-04T09:28:34;3.83;;;0.90;;
38479;SDS011;62333;51.980;5.934;2023-01-04T09:31:06;2.25;;;0.60;;
38479;SDS011;62333;51.980;5.934;2023-01-04T09:33:37;2.17;;;0.40;;
38479;SDS011;62333;51.980;5.934;2023-01-04T09:36:03;5.32;;;1.20;;
38479;SDS011;62333;51.980;5.934;2023-01-04T09:38:31;3.00;;;0.60;;
38479;SDS011;62333;51.980;5.934;2023-01-04T09:43:50;4.63;;;0.55;;
38479;SDS011;62333;51.980;5.934;2023-01-04T09:46:22;4.78;;;0.82;;
38479;SDS011;62333;51.980;5.934;2023-01-04T09:51:20;6.78;;;0.88;;
38479;SDS011;62333;51.980;5.934;2023-01-04T09:56:28;1.58;;;0.70;;
38479;SDS011;62333;51.980;5.934;2023-01-04T09:58:57;6.82;;;2.03;;
38479;SDS011;62333;51.980;5.934;2023-01-04T10:01:34;4.22;;;0.70;;
38479;SDS011;62333;51.980;5.934;2023-01-04T10:06:39;3.67;;;0.70;;
38479;SDS011;62333;51.980;5.934;2023-01-04T10:09:08;6.65;;;0.90;;
38479;SDS011;62333;51.980;5.934;2023-01-04T10:14:42;6.07;;;1.60;;
38479;SDS011;62333;51.980;5.934;2023-01-04T10:26:39;5.22;;;0.85;;
38479;SDS011;62333;51.980;5.934;2023-01-04T10:31:59;3.15;;;0.73;;
38479;SDS011;62333;51.980;5.934;2023-01-04T10:34:39;4.40;;;0.65;;
38479;SDS011;62333;51.980;5.934;2023-01-04T10:37:14;3.97;;;0.80;;
38479;SDS011;62333;51.980;5.934;2023-01-04T10:39:50;2.03;;;1.05;;
38479;SDS011;62333;51.980;5.934;2023-01-04T10:44:50;2.22;;;0.47;;
38479;SDS011;62333;51.980;5.934;2023-01-04T10:50:35;3.75;;;0.85;;
38479;SDS011;62333;51.980;5.934;2023-01-04T10:53:06;4.18;;;1.13;;
38479;SDS011;62333;51.980;5.934;2023-01-04T10:55:49;2.50;;;0.80;;
38479;SDS011;62333;51.980;5.934;2023-01-04T11:04:24;6.35;;;0.90;;
38479;SDS011;62333;51.980;5.934;2023-01-04T11:07:07;1.70;;;0.75;;
38479;SDS011;62333;51.980;5.934;2023-01-04T11:09:43;1.67;;;0.70;;
38479;SDS011;62333;51.980;5.934;2023-01-04T11:12:14;1.75;;;0.60;;
38479;SDS011;62333;51.980;5.934;2023-01-04T11:14:42;1.88;;;0.43;;
38479;SDS011;62333;51.980;5.934;2023-01-04T11:17:08;3.13;;;0.85;;
38479;SDS011;62333;51.980;5.934;2023-01-04T11:19:35;2.80;;;0.45;;
38479;SDS011;62333;51.980;5.934;2023-01-04T11:22:13;4.60;;;1.42;;
38479;SDS011;62333;51.980;5.934;2023-01-04T11:24:40;1.75;;;0.75;;
38479;SDS011;62333;51.980;5.934;2023-01-04T11:27:13;1.05;;;0.40;;
38479;SDS011;62333;51.980;5.934;2023-01-04T11:29:50;3.17;;;0.40;;
38479;SDS011;62333;51.980;5.934;2023-01-04T11:35:06;1.27;;;0.50;;
38479;SDS011;62333;51.980;5.934;2023-01-04T11:37:33;1.35;;;0.30;;
38479;SDS011;62333;51.980;5.934;2023-01-04T11:42:42;1.80;;;1.17;;
38479;SDS011;62333;51.980;5.934;2023-01-04T11:45:42;2.75;;;0.77;;
38479;SDS011;62333;51.980;5.934;2023-01-04T11:50:46;1.83;;;0.45;;
38479;SDS011;62333;51.980;5.934;2023-01-04T11:58:32;1.15;;;0.40;;
38479;SDS011;62333;51.980;5.934;2023-01-04T12:00:58;1.30;;;0.50;;
38479;SDS011;62333;51.980;5.934;2023-01-04T12:06:02;4.30;;;0.82;;
38479;SDS011;62333;51.980;5.934;2023-01-04T12:08:46;0.65;;;0.30;;
38479;SDS011;62333;51.980;5.934;2023-01-04T12:11:22;0.85;;;0.50;;
38479;SDS011;62333;51.980;5.934;2023-01-04T12:13:54;1.58;;;0.40;;
38479;SDS011;62333;51.980;5.934;2023-01-04T12:16:27;2.47;;;0.55;;
38479;SDS011;62333;51.980;5.934;2023-01-04T12:19:05;1.95;;;0.70;;
38479;SDS011;62333;51.980;5.934;2023-01-04T12:21:32;1.80;;;0.40;;
38479;SDS011;62333;51.980;5.934;2023-01-04T12:23:59;0.98;;;0.50;;
38479;SDS011;62333;51.980;5.934;2023-01-04T12:26:25;2.47;;;1.13;;
38479;SDS011;62333;51.980;5.934;2023-01-04T12:29:31;0.75;;;0.30;;
38479;SDS011;62333;51.980;5.934;2023-01-04T12:31:52;1.05;;;0.40;;
38479;SDS011;62333;51.980;5.934;2023-01-04T12:36:59;2.53;;;0.60;;
38479;SDS011;62333;51.980;5.934;2023-01-04T12:42:07;1.40;;;0.45;;
38479;SDS011;62333;51.980;5.934;2023-01-04T12:47:46;6.32;;;0.70;;
38479;SDS011;62333;51.980;5.934;2023-01-04T12:50:25;1.92;;;0.65;;
38479;SDS011;62333;51.980;5.934;2023-01-04T12:52:54;2.20;;;0.65;;
38479;SDS011;62333;51.980;5.934;2023-01-04T12:55:25;2.27;;;0.70;;
38479;SDS011;62333;51.980;5.934;2023-01-04T12:58:01;1.38;;;0.40;;
38479;SDS011;62333;51.980;5.934;2023-01-04T13:08:17;4.30;;;0.90;;
38479;SDS011;62333;51.980;5.934;2023-01-04T13:10:50;2.25;;;0.50;;
38479;SDS011;62333;51.980;5.934;2023-01-04T13:21:27;1.17;;;0.43;;
38479;SDS011;62333;51.980;5.934;2023-01-04T13:24:04;3.17;;;0.60;;
38479;SDS011;62333;51.980;5.934;2023-01-04T13:26:41;4.85;;;1.00;;
38479;SDS011;62333;51.980;5.934;2023-01-04T13:29:19;2.50;;;0.50;;
38479;SDS011;62333;51.980;5.934;2023-01-04T13:31:49;4.13;;;0.60;;
38479;SDS011;62333;51.980;5.934;2023-01-04T13:34:23;4.60;;;1.55;;
38479;SDS011;62333;51.980;5.934;2023-01-04T13:39:36;5.80;;;1.88;;
38479;SDS011;62333;51.980;5.934;2023-01-04T13:42:06;3.22;;;1.08;;
38479;SDS011;62333;51.980;5.934;2023-01-04T13:44:53;3.28;;;0.68;;
38479;SDS011;62333;51.980;5.934;2023-01-04T13:47:28;3.15;;;0.90;;
38479;SDS011;62333;51.980;5.934;2023-01-04T13:50:00;6.22;;;1.42;;
38479;SDS011;62333;51.980;5.934;2023-01-04T13:52:26;2.00;;;0.73;;
38479;SDS011;62333;51.980;5.934;2023-01-04T13:57:56;3.85;;;1.45;;
38479;SDS011;62333;51.980;5.934;2023-01-04T14:00:30;3.55;;;1.13;;
38479;SDS011;62333;51.980;5.934;2023-01-04T14:05:47;4.03;;;0.85;;
38479;SDS011;62333;51.980;5.934;2023-01-04T14:08:32;4.40;;;1.83;;
38479;SDS011;62333;51.980;5.934;2023-01-04T14:14:23;5.45;;;0.90;;
38479;SDS011;62333;51.980;5.934;2023-01-04T14:16:50;3.15;;;1.00;;
38479;SDS011;62333;51.980;5.934;2023-01-04T14:22:34;2.58;;;0.45;;
38479;SDS011;62333;51.980;5.934;2023-01-04T14:30:41;4.72;;;0.80;;
38479;SDS011;62333;51.980;5.934;2023-01-04T14:33:16;3.63;;;0.60;;
38479;SDS011;62333;51.980;5.934;2023-01-04T14:35:43;5.07;;;0.60;;
38479;SDS011;62333;51.980;5.934;2023-01-04T14:38:10;8.68;;;1.58;;
38479;SDS011;62333;51.980;5.934;2023-01-04T14:40:42;4.70;;;0.80;;
38479;SDS011;62333;51.980;5.934;2023-01-04T14:45:58;4.07;;;0.50;;
38479;SDS011;62333;51.980;5.934;2023-01-04T14:48:24;4.90;;;0.82;;
38479;SDS011;62333;51.980;5.934;2023-01-04T14:50:50;4.90;;;0.60;;
38479;SDS011;62333;51.980;5.934;2023-01-04T14:53:16;4.18;;;1.20;;
38479;SDS011;62333;51.980;5.934;2023-01-04T14:55:44;2.75;;;0.40;;
38479;SDS011;62333;51.980;5.934;2023-01-04T14:58:10;4.43;;;0.65;;
38479;SDS011;62333;51.980;5.934;2023-01-04T15:00:35;6.63;;;0.82;;
38479;SDS011;62333;51.980;5.934;2023-01-04T15:03:01;8.55;;;1.33;;
38479;SDS011;62333;51.980;5.934;2023-01-04T15:05:26;6.05;;;1.67;;
38479;SDS011;62333;51.980;5.934;2023-01-04T15:07:52;7.28;;;0.90;;
38479;SDS011;62333;51.980;5.934;2023-01-04T15:12:51;4.50;;;1.05;;
38479;SDS011;62333;51.980;5.934;2023-01-04T15:15:17;5.53;;;0.80;;
38479;SDS011;62333;51.980;5.934;2023-01-04T15:17:43;9.65;;;1.30;;
38479;SDS011;62333;51.980;5.934;2023-01-04T15:20:09;3.55;;;0.60;;
38479;SDS011;62333;51.980;5.934;2023-01-04T15:22:36;5.88;;;0.95;;
38479;SDS011;62333;51.980;5.934;2023-01-04T15:25:03;7.88;;;1.02;;
38479;SDS011;62333;51.980;5.934;2023-01-04T15:27:29;8.30;;;1.35;;
38479;SDS011;62333;51.980;5.934;2023-01-04T15:29:54;4.03;;;0.82;;
38479;SDS011;62333;51.980;5.934;2023-01-04T15:32:20;9.45;;;1.67;;
38479;SDS011;62333;51.980;5.934;2023-01-04T15:34:49;7.05;;;0.90;;
38479;SDS011;62333;51.980;5.934;2023-01-04T15:37:15;7.18;;;1.42;;
38479;SDS011;62333;51.980;5.934;2023-01-04T15:39:41;13.85;;;2.20;;
38479;SDS011;62333;51.980;5.934;2023-01-04T15:42:10;5.47;;;1.27;;
38479;SDS011;62333;51.980;5.934;2023-01-04T15:44:54;7.50;;;2.10;;
38479;SDS011;62333;51.980;5.934;2023-01-04T15:47:20;10.07;;;2.38;;
38479;SDS011;62333;51.980;5.934;2023-01-04T15:49:46;7.90;;;2.05;;
38479;SDS011;62333;51.980;5.934;2023-01-04T15:52:12;9.60;;;1.88;;
38479;SDS011;62333;51.980;5.934;2023-01-04T15:54:37;8.13;;;2.08;;
38479;SDS011;62333;51.980;5.934;2023-01-04T15:57:03;13.75;;;2.70;;
38479;SDS011;62333;51.980;5.934;2023-01-04T15:59:29;13.55;;;2.05;;
38479;SDS011;62333;51.980;5.934;2023-01-04T16:01:54;11.60;;;2.65;;
38479;SDS011;62333;51.980;5.934;2023-01-04T16:04:20;14.48;;;3.28;;
38479;SDS011;62333;51.980;5.934;2023-01-04T16:06:46;13.18;;;2.38;;
38479;SDS011;62333;51.980;5.934;2023-01-04T16:09:11;8.10;;;1.42;;
38479;SDS011;62333;51.980;5.934;2023-01-04T16:11:37;12.63;;;2.85;;
38479;SDS011;62333;51.980;5.934;2023-01-04T16:14:22;13.25;;;1.88;;
38479;SDS011;62333;51.980;5.934;2023-01-04T16:16:48;15.70;;;2.45;;
38479;SDS011;62333;51.980;5.934;2023-01-04T16:19:14;21.13;;;3.10;;
38479;SDS011;62333;51.980;5.934;2023-01-04T16:21:39;11.80;;;2.63;;
38479;SDS011;62333;51.980;5.934;2023-01-04T16:24:05;9.57;;;1.95;;
38479;SDS011;62333;51.980;5.934;2023-01-04T16:26:33;10.93;;;2.13;;
38479;SDS011;62333;51.980;5.934;2023-01-04T16:28:59;12.88;;;3.03;;
38479;SDS011;62333;51.980;5.934;2023-01-04T16:31:30;15.77;;;3.63;;
38479;SDS011;62333;51.980;5.934;2023-01-04T16:33:57;12.25;;;2.58;;
38479;SDS011;62333;51.980;5.934;2023-01-04T16:36:23;14.15;;;2.53;;
38479;SDS011;62333;51.980;5.934;2023-01-04T16:38:48;9.88;;;2.10;;
38479;SDS011;62333;51.980;5.934;2023-01-04T16:41:15;9.07;;;1.20;;
38479;SDS011;62333;51.980;5.934;2023-01-04T16:48:39;18.65;;;2.92;;
38479;SDS011;62333;51.980;5.934;2023-01-04T16:51:08;15.43;;;2.22;;
38479;SDS011;62333;51.980;5.934;2023-01-04T16:53:34;16.63;;;2.60;;
38479;SDS011;62333;51.980;5.934;2023-01-04T16:56:05;18.15;;;3.65;;
38479;SDS011;62333;51.980;5.934;2023-01-04T16:58:32;20.10;;;5.80;;
38479;SDS011;62333;51.980;5.934;2023-01-04T17:01:08;12.88;;;3.05;;
38479;SDS011;62333;51.980;5.934;2023-01-04T17:03:35;10.88;;;1.83;;
38479;SDS011;62333;51.980;5.934;2023-01-04T17:06:08;9.95;;;2.35;;
38479;SDS011;62333;51.980;5.934;2023-01-04T17:08:39;16.05;;;2.40;;
38479;SDS011;62333;51.980;5.934;2023-01-04T17:11:06;11.85;;;3.13;;
38479;SDS011;62333;51.980;5.934;2023-01-04T17:13:33;19.58;;;3.45;;
38479;SDS011;62333;51.980;5.934;2023-01-04T17:16:00;15.80;;;2.63;;
38479;SDS011;62333;51.980;5.934;2023-01-04T17:18:26;14.82;;;2.67;;
38479;SDS011;62333;51.980;5.934;2023-01-04T17:20:55;15.02;;;2.35;;
38479;SDS011;62333;51.980;5.934;2023-01-04T17:23:23;14.65;;;3.20;;
38479;SDS011;62333;51.980;5.934;2023-01-04T17:25:53;15.88;;;2.97;;
38479;SDS011;62333;51.980;5.934;2023-01-04T17:28:19;17.65;;;2.42;;
38479;SDS011;62333;51.980;5.934;2023-01-04T17:30:45;18.88;;;4.18;;